createdAt,value
2022-09-24T00:03:37.712Z,44.7
2022-09-24T00:08:59.384Z,44.6
2022-09-24T00:14:36.985Z,44.6
2022-09-24T00:20:12.765Z,44.6
2022-09-24T00:25:50.220Z,44.5
2022-09-24T00:31:27.780Z,44.5
2022-09-24T00:37:05.567Z,44.4
2022-09-24T00:42:27.804Z,44.4
2022-09-24T00:47:49.135Z,44.4
2022-09-24T00:52:55.628Z,44.3
2022-09-24T00:58:17.535Z,44.3
2022-09-24T01:03:40.180Z,44.3
2022-09-24T01:09:02.233Z,44.2
2022-09-24T01:14:08.624Z,44.2
2022-09-24T01:19:30.916Z,44.1
2022-09-24T01:24:55.002Z,44.1
2022-09-24T01:30:16.255Z,44.1
2022-09-24T01:35:40.441Z,44
2022-09-24T01:41:02.626Z,44
2022-09-24T01:46:08.661Z,43.9
2022-09-24T01:51:32.825Z,43.9
2022-09-24T01:56:55.078Z,43.9
2022-09-24T02:02:01.847Z,43.9
2022-09-24T02:07:23.869Z,43.8
2022-09-24T02:12:30.740Z,43.8
2022-09-24T02:18:07.522Z,43.8
2022-09-24T02:23:14.206Z,43.7
2022-09-24T02:28:52.338Z,43.7
2022-09-24T02:34:14.694Z,43.6
2022-09-24T02:39:51.634Z,43.6
2022-09-24T02:45:14.202Z,43.6
2022-09-24T02:50:51.767Z,43.5
2022-09-24T02:56:13.375Z,43.5
2022-09-24T03:01:51.428Z,43.4
2022-09-24T03:07:29.063Z,43.4
2022-09-24T03:12:56.186Z,43.4
2022-09-24T03:18:17.958Z,43.4
2022-09-24T03:23:39.440Z,43.3
2022-09-24T03:29:00.295Z,43.3
2022-09-24T03:34:23.498Z,43.3
2022-09-24T03:39:44.917Z,43.2
2022-09-24T03:45:06.138Z,43.1
2022-09-24T03:50:28.126Z,43.1
2022-09-24T03:55:49.791Z,43.1
2022-09-24T04:01:14.185Z,43.1
2022-09-24T04:06:25.863Z,43
2022-09-24T04:11:47.263Z,43
2022-09-24T04:17:23.650Z,42.9
2022-09-24T04:23:01.478Z,42.9
2022-09-24T04:28:22.869Z,42.9
2022-09-24T04:34:00.055Z,42.8
2022-09-24T04:39:38.727Z,42.8
2022-09-24T04:45:16.208Z,42.8
2022-09-24T04:50:42.018Z,42.8
2022-09-24T04:56:22.974Z,42.7
2022-09-24T05:02:03.826Z,42.7
2022-09-24T05:07:44.822Z,42.6
2022-09-24T05:13:27.545Z,42.6
2022-09-24T05:18:50.729Z,42.6
2022-09-24T05:23:57.561Z,42.6
2022-09-24T05:29:35.237Z,42.5
2022-09-24T05:35:13.189Z,42.4
2022-09-24T05:40:40.775Z,42.4
2022-09-24T05:46:04.172Z,42.3
2022-09-24T05:51:26.442Z,42.3
2022-09-24T05:56:53.898Z,42.2
2022-09-24T06:02:17.237Z,42.2
2022-09-24T06:07:28.657Z,42.2
2022-09-24T06:12:35.769Z,42.1
2022-09-24T06:17:58.877Z,42.1
2022-09-24T06:23:21.219Z,42.1
2022-09-24T06:28:28.325Z,42.1
2022-09-24T06:33:55.191Z,42
2022-09-24T06:39:17.995Z,42
2022-09-24T06:44:24.972Z,41.9
2022-09-24T06:49:50.802Z,41.9
2022-09-24T06:55:28.543Z,41.9
2022-09-24T07:00:53.317Z,41.9
2022-09-24T07:06:17.087Z,41.8
2022-09-24T07:11:53.951Z,41.8
2022-09-24T07:17:33.974Z,41.8
2022-09-24T07:23:12.501Z,41.8
2022-09-24T07:28:50.325Z,41.7
2022-09-24T07:34:27.754Z,41.6
2022-09-24T07:39:50.399Z,41.6
2022-09-24T07:45:28.514Z,41.6
2022-09-24T07:50:55.403Z,41.6
2022-09-24T07:56:17.925Z,41.5
2022-09-24T08:01:40.315Z,41.4
2022-09-24T08:07:20.789Z,41.4
2022-09-24T08:12:27.777Z,41.4
2022-09-24T08:18:05.995Z,41.4
2022-09-24T08:23:43.721Z,41.3
2022-09-24T08:29:21.334Z,41.3
2022-09-24T08:34:58.692Z,41.6
2022-09-24T08:40:40.467Z,42.1
2022-09-24T08:46:18.978Z,42.6
2022-09-24T08:51:56.964Z,43.2
2022-09-24T08:57:19.431Z,43.8
2022-09-24T09:02:59.892Z,44.3
2022-09-24T09:09:23.223Z,44.9
2022-09-24T09:15:04.317Z,45.5
2022-09-24T09:20:27.085Z,46.1
2022-09-24T09:26:09.655Z,46.6
2022-09-24T09:31:20.700Z,47.3
2022-09-24T09:36:47.076Z,47.7
2022-09-24T09:42:14.977Z,48.3
2022-09-24T09:47:41.359Z,48.9
2022-09-24T09:53:03.918Z,49.4
2022-09-24T09:58:25.303Z,49.9
2022-09-24T10:03:48.856Z,50.4
2022-09-24T10:09:32.963Z,50.9
2022-09-24T10:15:10.471Z,51.4
2022-09-24T10:20:50.678Z,51.8
2022-09-24T10:26:33.676Z,52.3
2022-09-24T10:31:40.220Z,52.8
2022-09-24T10:36:46.818Z,53.1
2022-09-24T10:41:44.061Z,53.5
2022-09-24T10:47:06.734Z,53.9
2022-09-24T10:52:34.501Z,54.3
2022-09-24T10:57:10.876Z,54.6
2022-09-24T11:02:49.664Z,55
2022-09-24T11:08:28.608Z,55.4
2022-09-24T11:14:08.724Z,55.8
2022-09-24T11:19:31.146Z,56
2022-09-24T11:24:53.343Z,56.3
2022-09-24T11:30:31.620Z,56.6
2022-09-24T11:35:58.293Z,56.9
2022-09-24T11:41:35.992Z,57.1
2022-09-24T11:47:14.761Z,57.4
2022-09-24T11:52:55.330Z,57.6
2022-09-24T11:58:20.244Z,57.8
2022-09-24T12:03:43.292Z,58
2022-09-24T12:09:20.223Z,58.2
2022-09-24T12:14:41.888Z,58.3
2022-09-24T12:19:48.802Z,58.4
2022-09-24T12:30:34.805Z,58.6
2022-09-24T12:36:01.806Z,58.6
2022-09-24T12:41:29.810Z,58.6
2022-09-24T12:47:13.130Z,58.6
2022-09-24T12:52:19.598Z,58.7
2022-09-24T12:57:59.114Z,58.8
2022-09-24T13:03:40.832Z,58.8
2022-09-24T13:09:05.507Z,58.8
2022-09-24T13:14:47.404Z,58.8
2022-09-24T13:20:28.616Z,58.8
2022-09-24T13:26:11.374Z,58.8
2022-09-24T13:31:55.491Z,58.8
2022-09-24T13:37:34.998Z,58.8
2022-09-24T13:43:13.120Z,58.8
2022-09-24T13:48:51.508Z,58.7
2022-09-24T13:54:29.103Z,58.6
2022-09-24T14:00:06.620Z,58.6
2022-09-24T14:05:45.142Z,58.6
2022-09-24T14:15:59.324Z,58.4
2022-09-24T14:21:22.319Z,58.4
2022-09-24T14:27:00.017Z,58.4
2022-09-24T14:32:39.804Z,58.4
2022-09-24T14:38:05.272Z,58.3
2022-09-24T14:43:43.394Z,58.3
2022-09-24T14:49:21.926Z,58.3
2022-09-24T14:54:59.949Z,58.2
2022-09-24T15:00:24.786Z,58.2
2022-09-24T15:06:07.869Z,58.1
2022-09-24T15:11:45.449Z,58.1
2022-09-24T15:17:23.683Z,58
2022-09-24T15:23:01.902Z,58
2022-09-24T15:28:42.492Z,57.9
2022-09-24T15:34:20.617Z,57.9
2022-09-24T15:39:43.235Z,57.9
2022-09-24T15:45:07.326Z,57.8
2022-09-24T15:50:30.237Z,57.8
2022-09-24T16:07:06.315Z,57.7
2022-09-24T16:12:32.385Z,57.6
2022-09-24T16:18:13.683Z,57.6
2022-09-24T16:23:26.371Z,57.6
2022-09-24T16:29:04.746Z,57.5
2022-09-24T16:34:42.843Z,57.5
2022-09-24T16:40:20.143Z,57.4
2022-09-24T16:51:10.266Z,57.4
2022-09-24T16:56:06.738Z,57.3
2022-09-24T17:01:29.403Z,57.3
2022-09-24T17:07:12.748Z,57.2
2022-09-24T17:12:57.271Z,57.2
2022-09-24T17:18:23.260Z,57.1
2022-09-24T17:24:01.268Z,57.1
2022-09-24T17:29:31.423Z,57.1
2022-09-24T17:35:38.247Z,57
2022-09-24T17:41:16.915Z,56.9
2022-09-24T17:46:44.301Z,56.9
2022-09-24T17:51:51.410Z,56.8
2022-09-24T17:57:30.126Z,56.8
2022-09-24T18:02:52.730Z,56.7
2022-09-24T18:08:31.064Z,56.6
2022-09-24T18:13:58.238Z,56.6
2022-09-24T18:19:21.413Z,56.6
2022-09-24T18:24:44.522Z,56.5
2022-09-24T18:30:06.116Z,56.5
2022-09-24T18:35:44.174Z,56.4
2022-09-24T18:41:07.036Z,56.4
2022-09-24T18:46:45.768Z,56.4
2022-09-24T18:52:08.224Z,56.3
2022-09-24T18:57:30.568Z,56.3
2022-09-24T19:02:55.417Z,56.2
2022-09-24T19:08:33.354Z,56.2
2022-09-24T19:14:15.890Z,56.1
2022-09-24T19:19:26.451Z,56.1
2022-09-24T19:24:49.595Z,56.1
2022-09-24T19:30:12.312Z,56
2022-09-24T19:35:19.998Z,55.9
2022-09-24T19:40:27.915Z,55.9
2022-09-24T19:45:35.540Z,55.9
2022-09-24T19:50:46.700Z,55.8
2022-09-24T19:55:57.642Z,55.8
2022-09-24T20:01:20.152Z,55.8
2022-09-24T20:06:43.549Z,55.7
2022-09-24T20:11:40.599Z,55.7
2022-09-24T20:16:47.515Z,55.6
2022-09-24T20:22:11.810Z,55.6
2022-09-24T20:27:04.063Z,55.6
2022-09-24T20:31:57.639Z,55.5
2022-09-24T20:37:23.020Z,55.5
2022-09-24T20:42:44.153Z,55.4
2022-09-24T20:48:13.329Z,55.4
2022-09-24T20:53:21.641Z,55.3
2022-09-24T20:58:44.021Z,55.3
2022-09-24T21:04:34.048Z,55.3
2022-09-24T21:10:11.998Z,55.2
2022-09-24T21:15:51.620Z,55.2
2022-09-24T21:22:03.343Z,55.1
2022-09-24T21:28:06.623Z,55.1
2022-09-24T21:33:29.438Z,55
2022-09-24T21:39:07.362Z,55
2022-09-24T21:44:45.445Z,54.9
2022-09-24T21:49:51.418Z,54.9
2022-09-24T21:54:57.673Z,54.9
2022-09-24T22:00:19.874Z,54.8
2022-09-24T22:05:57.709Z,54.8
2022-09-24T22:11:19.451Z,54.8
2022-09-24T22:16:57.062Z,54.7
2022-09-24T22:22:19.389Z,54.6
2022-09-24T22:27:25.115Z,54.6
2022-09-24T22:32:55.635Z,54.6
2022-09-24T22:38:19.450Z,54.5
2022-09-24T22:43:59.954Z,54.5
2022-09-24T22:49:24.257Z,54.4
2022-09-24T22:55:03.750Z,54.4
2022-09-24T23:00:42.765Z,54.3
2022-09-24T23:06:28.204Z,54.3
2022-09-24T23:11:50.320Z,54.3
2022-09-24T23:17:28.675Z,54.2
2022-09-24T23:22:51.017Z,54.2
2022-09-24T23:28:29.536Z,54.1
2022-09-24T23:34:06.880Z,54.1
2022-09-24T23:39:44.854Z,54.1
2022-09-24T23:45:06.086Z,54
2022-09-24T23:50:13.179Z,54
2022-09-24T23:55:50.854Z,53.9
